logo
Rechercher aéroport 
image banner adimage banner adimage banner ad
image banner ad

HKBT - Bute

Situé à , Kenya

ICAO - , IATA -

Données fournies par Airmate  

Information générale

Coordonnées: N3°20'13" E39°24'54"
Élévation : 1900 feet MSL.
Variation magnétique : 1° East
Voir autres Aéroports à Eastern Province

Données opérationnelles

Special qualification required
Heure actuelle UTC:
Heure actuelle locale:
Météo à : - ( 0 km )
METAR: PAIG 290918Z AUTO 09016G23KT 10SM 06/04 A2978 RMK AO2 PNO $
Voir NOTAMs / SUP AIP / TFR affectant cet aéroport [VIEW]
Fréquences de communication: [VIEW]

Pistes:

Identifiant RWYQFULongueur (ft)Largeur (ft)SurfaceLDA (ft)
15133°520487SAND
33313°520487SAND

Coordonnées de l'aéroport

Adresse: Kenya

Vue satellite de HKBT